createdAt,value
2018-07-25T07:21:35.938Z,97936.37
2018-07-25T07:22:39.297Z,97935.84
2018-07-25T07:23:42.352Z,97936.20
2018-07-25T07:24:45.157Z,97932.56
2018-07-25T08:14:25.214Z,97919.61
2018-07-25T08:15:27.877Z,97921.11
2018-07-25T08:16:30.437Z,97917.90
2018-07-25T08:17:34.098Z,97915.61
2018-07-25T08:18:36.632Z,97915.28
2018-07-25T08:19:40.827Z,97917.48
2018-07-25T08:20:44.554Z,97916.77
2018-07-25T08:21:47.168Z,97913.03
2018-07-25T08:22:49.737Z,97913.03
2018-07-25T08:23:52.342Z,97828.95
2018-07-25T08:24:55.919Z,97923.45
2018-07-25T08:25:58.787Z,97910.28
2018-07-25T08:27:01.330Z,97907.88
2018-07-25T08:28:04.497Z,97912.16
2018-07-25T08:29:07.041Z,97911.20
2018-07-25T08:30:10.211Z,97911.56
2018-07-25T08:31:12.973Z,97908.41
2018-07-25T08:32:15.909Z,97911.48
2018-07-25T08:33:18.517Z,97911.00
2018-07-25T08:34:21.045Z,97903.81
2018-07-25T08:35:23.631Z,97905.53
2018-07-25T08:36:26.231Z,97914.30
2018-07-25T08:37:28.868Z,97925.97
2018-07-25T08:38:31.687Z,97905.42
2018-07-25T08:39:34.645Z,97907.53
2018-07-25T08:40:38.019Z,97758.59
2018-07-25T08:41:41.183Z,97913.73
2018-07-25T08:42:43.831Z,97905.48
2018-07-25T08:43:46.411Z,97905.48
2018-07-25T08:44:49.360Z,97906.38
2018-07-25T08:45:52.511Z,97903.61
2018-07-25T08:46:56.725Z,97903.14
2018-07-25T09:23:41.443Z,97908.47
2018-07-25T09:24:44.068Z,97905.08
2018-07-25T11:07:59.601Z,97869.67
2018-07-25T11:09:02.205Z,97869.45
2018-07-25T11:10:05.586Z,97864.86
2018-07-25T11:11:08.328Z,97864.52
2018-07-25T11:12:13.361Z,97869.12
2018-07-25T11:13:16.374Z,97865.77
2018-07-25T11:14:19.040Z,97870.66
2018-07-25T11:15:22.300Z,97867.89
2018-07-25T11:16:24.949Z,97869.88
2018-07-25T11:17:27.563Z,97871.01
2018-07-25T11:18:30.780Z,97866.40
2018-07-25T11:19:33.366Z,97868.00
2018-07-25T11:20:37.783Z,97868.86
2018-07-25T11:21:40.331Z,97867.40
2018-07-25T11:22:42.964Z,97872.66
2018-07-25T11:23:49.339Z,97878.01
2018-07-25T11:24:52.441Z,97876.55
2018-07-25T13:30:14.721Z,97871.61
2018-07-25T13:31:17.438Z,97876.81
2018-07-25T13:32:20.065Z,97879.16
2018-07-25T13:33:22.652Z,97875.00
2018-07-25T13:34:25.254Z,97878.98
2018-07-25T13:35:28.345Z,97877.57
2018-07-25T13:36:31.874Z,97770.29
2018-07-25T13:37:34.487Z,97873.78
2018-07-25T13:38:37.046Z,97873.28
2018-07-25T13:39:39.576Z,97882.34
2018-07-25T16:47:06.913Z,97788.14
2018-07-25T16:48:09.709Z,97789.59
2018-07-25T16:49:12.405Z,97792.16
2018-07-25T16:50:15.023Z,97792.22
2018-07-25T16:51:18.199Z,97785.20
2018-07-25T16:52:20.851Z,97789.76
2018-07-25T16:53:23.547Z,97791.61
2018-07-25T16:54:26.285Z,97787.20
2018-07-25T16:55:32.445Z,97788.99
2018-07-25T16:56:35.386Z,97788.01
2018-07-25T16:57:38.941Z,97788.48
2018-07-25T16:58:42.171Z,97786.67
2018-07-25T16:59:45.655Z,97714.44
2018-07-25T17:00:49.456Z,97786.86
2018-07-25T17:01:53.544Z,97787.59
2018-07-25T17:02:56.625Z,97784.57
2018-07-25T17:03:59.752Z,97780.17
2018-07-25T17:05:02.392Z,97782.47
2018-07-25T17:06:05.238Z,97796.08
2018-07-25T17:07:18.435Z,97787.22
2018-07-25T17:08:21.447Z,97782.69
2018-07-25T17:09:24.553Z,97789.38
2018-07-25T17:10:27.699Z,97790.37
2018-07-25T17:11:30.684Z,97784.63
2018-07-25T17:12:34.129Z,97789.13
2018-07-25T17:13:36.861Z,97785.49
2018-07-25T17:14:39.529Z,97681.03
2018-07-25T17:15:42.295Z,97790.98
2018-07-25T17:16:45.339Z,97790.98
2018-07-25T17:17:48.109Z,97791.45
2018-07-25T17:18:50.939Z,97791.45
2018-07-25T17:19:53.981Z,97792.41
2018-07-25T17:20:56.619Z,97793.37
2018-07-25T17:21:59.254Z,97791.07
2018-07-25T17:23:02.342Z,97799.23
2018-07-25T17:24:05.152Z,97792.63
2018-07-25T17:25:07.783Z,97498.36
2018-07-25T17:26:10.496Z,97799.36
2018-07-25T17:27:13.344Z,97803.16
2018-07-25T17:28:16.033Z,97802.20
2018-07-25T17:29:20.073Z,97670.27
2018-07-25T17:30:22.768Z,97649.62
2018-07-25T17:31:25.380Z,97800.70
2018-07-25T17:32:27.987Z,97798.23
2018-07-25T17:33:30.604Z,97804.36
2018-07-25T17:34:33.401Z,97643.97
2018-07-25T17:35:36.342Z,97801.62
2018-07-25T17:36:40.091Z,97800.03
2018-07-25T17:37:42.705Z,97800.73
2018-07-25T17:38:45.291Z,97796.97
2018-07-25T17:39:47.927Z,97803.88
2018-07-25T17:40:50.649Z,97804.05
2018-07-25T17:41:54.608Z,97793.56
2018-07-25T17:42:57.716Z,97802.23
2018-07-25T17:44:00.500Z,97802.58
2018-07-25T17:45:03.243Z,97803.59
2018-07-25T17:46:05.917Z,97800.70
2018-07-25T17:47:08.538Z,97801.14
2018-07-25T17:48:12.452Z,97800.92
2018-07-25T17:49:18.243Z,97808.80
2018-07-25T17:50:20.834Z,97801.14
2018-07-25T17:51:23.414Z,97804.43
2018-07-25T17:52:25.992Z,97811.91
2018-07-25T17:53:28.570Z,97808.95
2018-07-25T17:54:32.108Z,97811.66
2018-07-25T17:55:34.795Z,97807.14
2018-07-25T17:56:37.332Z,97802.26
2018-07-25T17:57:39.896Z,97824.64
2018-07-25T19:11:23.568Z,97881.04
2018-07-25T19:12:26.486Z,97873.71
2018-07-25T19:13:29.102Z,97884.69
2018-07-25T19:14:31.666Z,97886.14
2018-07-25T19:15:34.220Z,97888.14
2018-07-25T19:16:37.225Z,97891.89
2018-07-25T19:17:39.795Z,97888.44
2018-07-25T19:18:43.349Z,97733.58
2018-07-25T19:19:48.344Z,97892.63
2018-07-25T19:20:51.883Z,97894.00
2018-07-25T19:21:54.447Z,97892.19
2018-07-25T19:22:57.319Z,97901.34
2018-07-25T19:24:02.046Z,97901.94
2018-07-25T19:25:04.610Z,97906.91
2018-07-25T19:26:07.248Z,97903.84
2018-07-25T19:27:09.865Z,97904.84
2018-07-25T19:28:12.514Z,97906.44
2018-07-25T19:29:15.393Z,97912.66
2018-07-25T19:30:21.481Z,97909.38
2018-07-25T19:31:25.030Z,97912.91
2018-07-25T19:32:29.837Z,97908.38
2018-07-25T19:33:33.011Z,97914.38
2018-07-25T19:34:36.094Z,97915.89
2018-07-25T19:35:41.749Z,97912.34
2018-07-25T19:36:44.316Z,97918.09
2018-07-25T19:38:56.234Z,97921.81
2018-07-25T19:40:00.409Z,97922.20
2018-07-25T19:41:02.988Z,97927.46
2018-07-25T19:42:07.174Z,97929.06
2018-07-25T19:43:09.730Z,97929.89
2018-07-25T19:45:22.557Z,97934.25
2018-07-25T19:46:25.155Z,97932.91
2018-07-25T19:47:28.889Z,97930.88
2018-07-25T19:48:31.822Z,97935.80
2018-07-25T19:49:34.463Z,97944.30
2018-07-25T19:50:37.890Z,97941.72
2018-07-25T19:51:41.395Z,97941.24
2018-07-25T19:52:43.961Z,97939.52
2018-07-25T19:53:46.509Z,97944.96
2018-07-25T19:54:49.426Z,97945.44
2018-07-25T19:55:51.973Z,97943.14
2018-07-25T19:56:54.562Z,97942.92
2018-07-25T19:57:57.134Z,97939.86
2018-07-25T19:58:59.687Z,97937.66
2018-07-25T20:00:02.295Z,97941.94
2018-07-25T20:01:05.247Z,97937.57
2018-07-25T20:02:08.460Z,97940.51
2018-07-25T20:03:12.681Z,97942.23
2018-07-25T20:04:15.277Z,97945.05
2018-07-25T20:05:17.829Z,97949.92
2018-07-25T20:06:21.068Z,97816.36
2018-07-25T20:07:23.651Z,97949.70
2018-07-25T20:08:26.283Z,97951.17
2018-07-25T20:09:28.823Z,97951.91
2018-07-25T20:10:34.115Z,97944.30
2018-07-25T20:11:36.688Z,97940.77
2018-07-25T20:12:40.547Z,97945.61
2018-07-25T20:13:43.990Z,97943.57
2018-07-25T20:14:46.546Z,97943.06
2018-07-25T20:15:49.150Z,97718.05
2018-07-25T20:16:52.633Z,97936.14
2018-07-25T20:17:55.266Z,97944.30
2018-07-25T20:18:58.491Z,97940.16
2018-07-25T20:20:02.726Z,97945.17
2018-07-25T20:21:05.375Z,97943.23
2018-07-25T20:22:07.962Z,97941.06
2018-07-25T20:23:10.585Z,97943.52
2018-07-25T20:24:13.278Z,97938.89
2018-07-25T20:25:16.251Z,97940.23
2018-07-25T20:26:19.904Z,97945.05
2018-07-25T20:27:22.609Z,97938.16
2018-07-25T20:28:25.313Z,97940.72
2018-07-25T20:29:28.539Z,97940.59
2018-07-25T20:30:31.247Z,97942.56
2018-07-25T20:31:34.250Z,97941.70
2018-07-25T20:32:36.818Z,97946.45
2018-07-25T20:33:39.970Z,97945.46
2018-07-25T20:34:42.807Z,97943.74
2018-07-25T20:35:45.368Z,97949.36
2018-07-25T20:36:51.522Z,97946.94
2018-07-25T20:37:54.942Z,97948.75
2018-07-25T20:38:57.537Z,97950.30
2018-07-25T20:50:52.221Z,97946.02
2018-07-25T20:51:58.539Z,97788.11
2018-07-25T20:53:03.597Z,97952.30
2018-07-25T20:54:10.145Z,97948.59
2018-07-25T20:55:12.696Z,97947.94
2018-07-25T20:56:16.559Z,97947.00
2018-07-25T20:57:19.659Z,97947.30
2018-07-25T20:58:23.527Z,97940.03
2018-07-25T20:59:26.087Z,97938.69
2018-07-25T21:00:29.665Z,97939.42
2018-07-25T21:01:33.850Z,97937.13
2018-07-25T21:02:38.003Z,97937.00
2018-07-25T21:03:40.579Z,97937.39
2018-07-25T21:04:43.148Z,97937.74
2018-07-25T21:05:45.717Z,97940.42
2018-07-25T21:14:15.293Z,97937.82
2018-07-25T21:15:20.712Z,97933.20
2018-07-25T21:16:23.312Z,97931.27
2018-07-25T21:17:25.877Z,97933.17
2018-07-25T21:18:28.517Z,97941.63
2018-07-25T21:19:31.476Z,97932.95
2018-07-25T21:20:34.085Z,97951.73
2018-07-25T21:21:36.677Z,97937.05
2018-07-25T21:22:39.284Z,97938.01
2018-07-25T21:23:41.832Z,97941.13
2018-07-25T21:24:44.385Z,97947.08
2018-07-25T21:25:47.256Z,97945.62
2018-07-25T21:26:49.823Z,97943.45
2018-07-25T21:27:52.486Z,97944.66
2018-07-25T21:28:55.072Z,97949.45
2018-07-25T21:29:57.659Z,97948.06
2018-07-25T21:31:00.255Z,97946.29
